Terminal Aerodrome Forecast
Issued by NWS

Home | Current Version | Previous Version | Graphics & Text | Print | Product List | Glossary On
Versions: 1 2 3 4 5 6 7 8 9 10 11 12 13 14 15 16 17 18 19 20
000
FTUS43 KBIS 161100
TAFDIK
TAF
KDIK 161120Z 1612/1712 33005KT P6SM OVC015
     FM161800 15005KT P6SM OVC018
     FM162200 13007KT P6SM SCT025
     FM170300 14008KT P6SM SKC=

USA.gov is the U.S. government's official web portal to all federal, state and local government web resources and services.